Time;durP1;ratioP1;P1;durP2;ratioP2;P2;SDS_P1;SDS_P2;PMS_P1;PMS_P2;Temp;Humidity;BMP_temperature;BMP_pressure;BME280_temperature;BME280_humidity;BME280_pressure;Samples;Min_cycle;Max_cycle;Signal;HPM_P1;HPM_P2
2022/04/02 00:01:50;;;;;;;7.27;5.60;;;0.70;99.90;;;;;;5050144;28;20272;-50
2022/04/02 00:04:20;;;;;;;10.27;6.50;;;0.80;99.90;;;;;;5050510;28;20570;-50
2022/04/02 00:06:48;;;;;;;8.13;6.30;;;0.80;99.90;;;;;;5051182;28;20245;-50
2022/04/02 00:09:17;;;;;;;8.63;6.40;;;0.70;99.90;;;;;;5050633;28;20227;-50
2022/04/02 00:11:45;;;;;;;9.90;6.97;;;0.70;99.90;;;;;;5050497;28;20616;-50
2022/04/02 00:14:14;;;;;;;7.47;6.20;;;0.70;99.90;;;;;;5050288;28;20204;-50
2022/04/02 00:16:43;;;;;;;6.93;6.23;;;0.70;99.90;;;;;;5051029;28;20260;-49
2022/04/02 00:19:11;;;;;;;10.40;6.90;;;0.80;99.90;;;;;;5051363;28;20223;-49
2022/04/02 00:21:41;;;;;;;9.53;7.07;;;0.80;99.90;;;;;;5051089;28;20237;-50
2022/04/02 00:24:09;;;;;;;10.57;7.03;;;0.80;99.90;;;;;;5051118;28;20215;-50
2022/04/02 00:26:38;;;;;;;10.40;6.70;;;0.70;99.90;;;;;;5050662;28;20561;-49
2022/04/02 00:29:10;;;;;;;9.10;7.13;;;0.70;99.90;;;;;;5050805;28;20581;-49
2022/04/02 00:31:38;;;;;;;8.43;7.23;;;0.80;99.90;;;;;;5050935;28;20210;-50
2022/04/02 00:34:07;;;;;;;8.90;5.90;;;0.80;99.90;;;;;;5050942;28;20203;-50
2022/04/02 00:36:37;;;;;;;11.23;7.40;;;0.80;99.90;;;;;;5050624;28;20205;-50
2022/04/02 00:39:09;;;;;;;9.07;7.53;;;0.80;99.90;;;;;;5050893;28;20223;-50
2022/04/02 00:41:37;;;;;;;7.80;6.67;;;0.70;99.90;;;;;;5050945;28;20286;-50
2022/04/02 00:44:12;;;;;;;8.57;7.23;;;0.70;99.90;;;;;;5050795;28;20213;-50
2022/04/02 00:46:41;;;;;;;9.20;7.40;;;0.80;99.90;;;;;;5050965;28;20215;-50
2022/04/02 00:49:11;;;;;;;8.13;7.30;;;0.70;99.90;;;;;;5050030;28;20281;-50
2022/04/02 00:51:42;;;;;;;11.53;8.40;;;0.70;99.90;;;;;;5050514;28;20210;-50
2022/04/02 00:54:14;;;;;;;9.47;7.53;;;0.60;99.90;;;;;;5050749;28;20214;-51
2022/04/02 00:56:43;;;;;;;13.40;8.87;;;0.60;99.90;;;;;;5050925;28;20210;-50
2022/04/02 00:59:12;;;;;;;12.00;8.80;;;0.70;99.90;;;;;;5050624;28;20561;-50
2022/04/02 01:01:41;;;;;;;11.93;8.93;;;0.70;99.90;;;;;;5050633;28;20241;-50
2022/04/02 01:04:09;;;;;;;13.83;9.20;;;0.70;99.90;;;;;;5050200;28;20238;-50
2022/04/02 01:06:38;;;;;;;9.70;8.57;;;0.70;99.90;;;;;;5050591;28;20558;-50
2022/04/02 01:09:06;;;;;;;9.80;8.27;;;0.70;99.90;;;;;;5050971;28;20272;-50
2022/04/02 01:11:40;;;;;;;12.63;8.90;;;0.70;99.90;;;;;;5050306;28;20237;-50
2022/04/02 01:14:08;;;;;;;10.97;8.33;;;0.60;99.90;;;;;;5050818;28;20191;-50
2022/04/02 01:16:37;;;;;;;10.00;7.57;;;0.60;99.90;;;;;;5050329;28;20207;-50
2022/04/02 01:19:06;;;;;;;8.50;7.60;;;0.60;99.90;;;;;;5050771;28;20261;-50
2022/04/02 01:21:34;;;;;;;11.27;7.07;;;0.60;99.90;;;;;;5033306;28;20234;-50
2022/04/02 01:24:05;;;;;;;9.83;8.00;;;0.60;99.90;;;;;;5030444;28;20208;-50
2022/04/02 01:26:34;;;;;;;10.70;7.60;;;0.60;99.90;;;;;;5030418;28;20216;-50
2022/04/02 01:29:02;;;;;;;10.60;7.00;;;0.60;99.90;;;;;;5030023;28;20277;-49
2022/04/02 01:31:30;;;;;;;8.17;6.03;;;0.50;99.90;;;;;;5046627;28;20273;-50
2022/04/02 01:33:58;;;;;;;8.63;7.00;;;0.60;99.90;;;;;;5050005;28;20241;-50
2022/04/02 01:36:27;;;;;;;10.40;6.10;;;0.50;99.90;;;;;;5050291;28;20241;-48
2022/04/02 01:38:55;;;;;;;11.63;7.30;;;0.50;99.90;;;;;;5050261;28;20582;-49
2022/04/02 01:41:24;;;;;;;7.40;6.03;;;0.60;99.90;;;;;;5050993;28;20207;-50
2022/04/02 01:43:53;;;;;;;6.80;6.00;;;0.60;99.90;;;;;;5053284;28;20212;-50
2022/04/02 01:46:21;;;;;;;8.47;6.30;;;0.60;99.90;;;;;;5052740;28;20215;-50
2022/04/02 01:48:49;;;;;;;9.63;7.00;;;0.50;99.90;;;;;;5053969;28;20266;-50
2022/04/02 01:51:17;;;;;;;13.40;6.87;;;0.50;99.90;;;;;;5052971;28;20261;-49
2022/04/02 01:53:45;;;;;;;9.63;7.27;;;0.50;99.90;;;;;;5053643;28;20203;-50
2022/04/02 01:56:13;;;;;;;14.17;6.67;;;0.50;99.90;;;;;;5053779;28;20208;-50
2022/04/02 01:58:43;;;;;;;7.93;6.90;;;0.50;99.90;;;;;;5053538;28;20204;-50
2022/04/02 02:01:11;;;;;;;10.80;6.53;;;0.40;99.90;;;;;;5053811;28;20206;-49
2022/04/02 02:03:39;;;;;;;10.23;6.20;;;0.40;99.90;;;;;;5053283;28;20243;-50
2022/04/02 02:06:07;;;;;;;9.40;6.10;;;0.40;99.90;;;;;;5053822;28;20209;-49
2022/04/02 02:08:35;;;;;;;7.33;6.13;;;0.40;99.90;;;;;;5053843;28;20213;-50
2022/04/02 02:11:04;;;;;;;8.80;6.03;;;0.50;99.90;;;;;;5053782;28;20202;-50
2022/04/02 02:13:32;;;;;;;9.07;6.20;;;0.40;99.90;;;;;;5053291;28;20262;-49
2022/04/02 02:16:01;;;;;;;6.23;5.63;;;0.40;99.90;;;;;;5053485;28;20208;-50
2022/04/02 02:18:29;;;;;;;9.23;5.87;;;0.40;99.90;;;;;;5053179;28;20328;-49
2022/04/02 02:20:58;;;;;;;8.57;6.20;;;0.50;99.90;;;;;;5053652;28;20234;-49
2022/04/02 02:23:26;;;;;;;7.30;5.60;;;0.40;99.90;;;;;;5052680;28;20894;-50
2022/04/02 02:25:54;;;;;;;7.87;6.17;;;0.30;99.90;;;;;;5053428;28;20249;-49
2022/04/02 02:28:22;;;;;;;6.67;5.43;;;0.40;99.90;;;;;;5053549;28;20210;-49
2022/04/02 02:30:50;;;;;;;8.23;6.27;;;0.40;99.90;;;;;;5053336;28;20807;-50
2022/04/02 02:36:06;;;;;;;7.27;6.10;;;0.40;99.90;;;;;;5053436;28;20194;-50
2022/04/02 02:38:35;;;;;;;10.30;6.50;;;0.40;99.90;;;;;;5053054;28;20260;-50
2022/04/02 02:41:03;;;;;;;8.70;6.47;;;0.40;99.90;;;;;;5053158;28;20207;-50
2022/04/02 02:43:31;;;;;;;8.80;6.10;;;0.30;99.90;;;;;;5052065;28;20616;-50
2022/04/02 02:45:59;;;;;;;9.27;6.20;;;0.30;99.90;;;;;;5051633;28;20673;-49
2022/04/02 02:48:29;;;;;;;7.17;6.03;;;0.30;99.90;;;;;;5037937;28;20212;-50
2022/04/02 02:50:57;;;;;;;10.30;6.80;;;0.30;99.90;;;;;;5032709;28;20285;-50
2022/04/02 02:53:25;;;;;;;8.40;6.23;;;0.30;99.90;;;;;;5032459;28;20207;-49
2022/04/02 02:55:53;;;;;;;7.83;6.27;;;0.30;99.90;;;;;;5032152;28;20225;-49
2022/04/02 02:58:21;;;;;;;7.30;6.60;;;0.20;99.90;;;;;;5032510;28;20630;-50
2022/04/02 03:00:49;;;;;;;10.37;6.87;;;0.20;99.90;;;;;;5050354;28;20567;-49
2022/04/02 03:03:18;;;;;;;9.00;7.07;;;0.20;99.90;;;;;;5051999;28;20227;-50
2022/04/02 03:05:47;;;;;;;10.17;7.40;;;0.20;99.90;;;;;;5052822;28;20592;-50
2022/04/02 03:08:16;;;;;;;9.90;7.63;;;0.10;99.90;;;;;;5052460;28;20237;-50
2022/04/02 03:10:45;;;;;;;8.20;7.30;;;0.10;99.90;;;;;;5052558;28;20226;-50
2022/04/02 03:13:14;;;;;;;9.73;7.53;;;0.20;99.90;;;;;;5051938;28;20733;-50
2022/04/02 03:15:43;;;;;;;11.13;7.93;;;0.20;99.90;;;;;;5052108;28;20301;-50
2022/04/02 03:18:11;;;;;;;8.43;7.30;;;0.10;99.90;;;;;;5052650;28;20207;-50
2022/04/02 03:20:40;;;;;;;9.00;7.07;;;0.10;99.90;;;;;;5051790;28;20226;-49
2022/04/02 03:23:10;;;;;;;11.80;9.97;;;0.10;99.90;;;;;;5051370;28;20231;-50
2022/04/02 03:25:39;;;;;;;9.50;7.83;;;0.10;99.90;;;;;;5052046;28;20599;-50
2022/04/02 03:28:07;;;;;;;10.80;8.17;;;0.10;99.90;;;;;;5052164;28;20263;-50
2022/04/02 03:30:36;;;;;;;11.87;8.20;;;0.10;99.90;;;;;;5051573;28;20289;-50
2022/04/02 03:33:05;;;;;;;10.77;8.60;;;0.10;99.90;;;;;;5051592;28;20210;-50
2022/04/02 03:35:33;;;;;;;11.50;8.30;;;0.10;99.90;;;;;;5051233;28;20217;-50
2022/04/02 03:38:01;;;;;;;9.10;8.20;;;0.10;99.90;;;;;;5051752;28;20640;-50
2022/04/02 03:40:31;;;;;;;9.83;8.23;;;0.10;99.90;;;;;;5051650;28;20706;-50
2022/04/02 03:42:59;;;;;;;10.00;7.77;;;0.10;99.90;;;;;;5051207;28;20222;-50
2022/04/02 03:45:27;;;;;;;10.20;7.97;;;0.10;99.90;;;;;;5049827;28;20214;-50
2022/04/02 03:47:56;;;;;;;11.40;7.57;;;0.10;99.90;;;;;;5051498;28;20202;-50
2022/04/02 03:50:25;;;;;;;8.97;7.37;;;0.10;99.90;;;;;;5051286;28;20788;-50
2022/04/02 03:52:54;;;;;;;7.67;6.87;;;0.10;99.90;;;;;;5051534;28;20203;-50
2022/04/02 03:55:22;;;;;;;10.47;7.10;;;0.10;99.90;;;;;;5051847;28;20206;-49
2022/04/02 03:57:52;;;;;;;10.30;7.40;;;0.10;99.90;;;;;;5051665;28;20259;-50
2022/04/02 04:00:20;;;;;;;10.57;6.97;;;0.10;99.90;;;;;;5051587;28;20218;-49
2022/04/02 04:02:48;;;;;;;11.67;7.50;;;0.20;99.90;;;;;;5051341;28;20231;-51
2022/04/02 04:05:19;;;;;;;10.10;7.07;;;0.10;99.90;;;;;;5051059;28;20209;-51
2022/04/02 04:07:47;;;;;;;10.73;7.13;;;0.10;99.90;;;;;;5051389;28;20841;-51
2022/04/02 04:10:16;;;;;;;9.47;6.40;;;0.10;99.90;;;;;;5051132;28;20226;-51
2022/04/02 04:12:46;;;;;;;10.47;6.13;;;0.10;99.90;;;;;;5050938;28;20314;-51
2022/04/02 04:15:16;;;;;;;8.10;6.30;;;0.10;99.90;;;;;;5051102;28;20199;-50
2022/04/02 04:17:44;;;;;;;6.13;5.27;;;0.10;99.90;;;;;;5051772;28;20206;-51
2022/04/02 04:20:13;;;;;;;8.43;5.50;;;0.10;99.90;;;;;;5050980;28;20230;-50
2022/04/02 04:22:41;;;;;;;10.73;5.67;;;0.10;99.90;;;;;;5035250;28;20199;-50
2022/04/02 04:25:10;;;;;;;8.03;5.33;;;0.10;99.90;;;;;;5031434;28;20202;-50
2022/04/02 04:27:39;;;;;;;7.20;5.27;;;0.10;99.90;;;;;;5031116;28;20726;-50
2022/04/02 04:30:08;;;;;;;7.37;4.63;;;0.10;99.90;;;;;;5030802;28;20228;-51
2022/04/02 04:32:39;;;;;;;7.17;4.70;;;0.10;99.90;;;;;;5030381;28;20218;-50
2022/04/02 04:35:08;;;;;;;8.23;4.80;;;0.10;99.90;;;;;;5030977;28;20664;-51
2022/04/02 04:37:36;;;;;;;6.03;4.70;;;0.20;99.90;;;;;;5031091;28;20208;-51
2022/04/02 04:40:06;;;;;;;8.13;5.00;;;0.20;99.90;;;;;;5031117;28;20228;-50
2022/04/02 04:42:34;;;;;;;6.57;5.20;;;0.20;99.90;;;;;;5031144;28;20237;-50
2022/04/02 04:45:02;;;;;;;7.17;5.17;;;0.10;99.90;;;;;;5029055;28;20226;-51
2022/04/02 04:47:31;;;;;;;7.53;5.43;;;0.10;99.90;;;;;;5038184;28;20206;-50
2022/04/02 04:50:00;;;;;;;6.13;4.93;;;0.10;99.90;;;;;;5050624;28;20233;-50
2022/04/02 04:52:29;;;;;;;7.57;5.13;;;0.10;99.90;;;;;;5050359;28;20222;-51
2022/04/02 04:54:57;;;;;;;7.47;5.60;;;0.10;99.90;;;;;;5050360;28;20635;-51
2022/04/02 04:57:25;;;;;;;8.80;5.33;;;0.10;99.90;;;;;;5050965;28;20207;-49
2022/04/02 04:59:53;;;;;;;5.87;5.07;;;0.10;99.90;;;;;;5050127;28;20272;-49
2022/04/02 05:02:22;;;;;;;6.43;5.30;;;0.10;99.90;;;;;;5050402;28;20769;-51
2022/04/02 05:04:51;;;;;;;7.03;4.67;;;0.10;99.90;;;;;;5050209;28;20619;-50
2022/04/02 05:07:20;;;;;;;7.33;5.10;;;0.10;99.90;;;;;;5050373;28;20710;-51
2022/04/02 05:09:49;;;;;;;9.03;5.23;;;0.10;99.90;;;;;;5050523;28;20225;-51
2022/04/02 05:12:17;;;;;;;6.60;5.50;;;0.10;99.90;;;;;;5050125;28;20218;-51
2022/04/02 05:14:45;;;;;;;8.97;5.47;;;0.10;99.90;;;;;;5050369;28;20663;-51
2022/04/02 05:17:16;;;;;;;9.27;5.43;;;0.20;99.90;;;;;;5052645;28;20188;-50
2022/04/02 05:19:45;;;;;;;7.00;4.70;;;0.20;99.90;;;;;;5054257;28;20234;-50
2022/04/02 05:22:13;;;;;;;6.73;4.90;;;0.30;99.90;;;;;;5054056;28;20586;-50
2022/04/02 05:24:43;;;;;;;5.83;4.37;;;0.30;99.90;;;;;;5055401;28;20231;-50
2022/04/02 05:27:11;;;;;;;7.87;5.20;;;0.30;99.90;;;;;;5056344;28;20259;-50
2022/04/02 05:29:39;;;;;;;6.10;4.30;;;0.40;99.90;;;;;;5054090;28;20230;-51
2022/04/02 05:32:09;;;;;;;5.30;4.50;;;0.30;99.90;;;;;;5053785;28;20260;-50
2022/04/02 05:34:37;;;;;;;7.43;4.60;;;0.40;99.90;;;;;;5053354;28;20206;-51
2022/04/02 05:37:06;;;;;;;5.37;4.37;;;0.50;99.90;;;;;;5033861;28;20614;-51
2022/04/02 05:39:34;;;;;;;7.23;4.70;;;0.50;99.90;;;;;;5033999;28;20236;-50
2022/04/02 05:42:05;;;;;;;6.67;4.47;;;0.60;99.90;;;;;;5033843;28;20214;-51
2022/04/02 05:44:33;;;;;;;5.03;4.53;;;0.70;99.90;;;;;;5033877;28;20285;-50
2022/04/02 05:47:01;;;;;;;5.90;4.40;;;0.70;99.90;;;;;;5036179;28;20208;-51
2022/04/02 05:49:46;;;;;;;8.93;4.30;;;0.70;99.90;;;;;;5053064;28;20322;-51
2022/04/02 05:52:14;;;;;;;5.83;4.00;;;0.80;99.90;;;;;;5053314;28;20252;-50
2022/04/02 05:54:42;;;;;;;5.73;4.27;;;0.90;99.90;;;;;;5053534;28;20202;-50
2022/04/02 05:57:13;;;;;;;5.77;4.00;;;0.90;99.90;;;;;;5053815;28;20255;-51
2022/04/02 05:59:41;;;;;;;4.57;4.13;;;1.00;99.90;;;;;;5053629;28;20226;-50
2022/04/02 06:02:12;;;;;;;6.57;4.03;;;1.10;99.90;;;;;;5052475;28;20218;-50
2022/04/02 06:04:40;;;;;;;4.80;3.67;;;1.10;99.90;;;;;;5053175;28;20794;-50
2022/04/02 06:07:08;;;;;;;4.97;4.10;;;1.20;99.90;;;;;;5053530;28;20212;-51
2022/04/02 06:09:36;;;;;;;5.67;4.10;;;1.30;99.90;;;;;;5053434;28;20223;-50
2022/04/02 06:12:05;;;;;;;4.50;4.07;;;1.40;99.90;;;;;;5053153;28;20303;-51
2022/04/02 06:14:34;;;;;;;6.90;4.27;;;1.40;99.90;;;;;;5052808;28;20270;-50
2022/04/02 06:17:03;;;;;;;7.47;4.50;;;1.40;99.90;;;;;;5053365;28;20265;-50
2022/04/02 06:19:31;;;;;;;6.23;4.57;;;1.40;99.90;;;;;;5052796;28;20280;-50
2022/04/02 06:22:01;;;;;;;5.33;4.33;;;1.40;99.90;;;;;;5052780;28;20215;-51
2022/04/02 06:24:29;;;;;;;7.27;4.33;;;1.50;99.90;;;;;;5053023;28;20238;-50
2022/04/02 06:26:57;;;;;;;6.37;4.67;;;1.40;99.90;;;;;;5052806;28;20257;-50
2022/04/02 06:29:25;;;;;;;7.57;4.83;;;1.50;99.90;;;;;;5052578;28;20227;-51
2022/04/02 06:31:54;;;;;;;7.07;4.53;;;1.50;99.90;;;;;;5052580;28;20265;-50
2022/04/02 06:34:23;;;;;;;5.80;4.77;;;1.60;99.90;;;;;;5052925;28;20627;-51
2022/04/02 06:36:51;;;;;;;10.93;5.53;;;1.60;99.90;;;;;;5047747;28;20746;-50
2022/04/02 06:39:19;;;;;;;8.47;5.20;;;1.70;99.90;;;;;;5052413;28;20289;-50
2022/04/02 06:41:47;;;;;;;6.13;5.40;;;1.80;99.90;;;;;;5052033;28;20205;-51
2022/04/02 06:44:16;;;;;;;5.80;5.20;;;1.80;99.90;;;;;;5052897;28;20202;-51
2022/04/02 06:46:44;;;;;;;8.83;5.80;;;1.90;99.90;;;;;;5052650;28;20209;-50
2022/04/02 06:49:13;;;;;;;7.60;5.47;;;1.90;99.90;;;;;;5052785;28;20227;-50
2022/04/02 06:51:41;;;;;;;7.53;5.73;;;2.10;99.90;;;;;;5052129;28;20678;-51
2022/04/02 06:54:09;;;;;;;8.73;6.10;;;2.10;99.90;;;;;;5052364;28;20270;-50
2022/04/02 06:56:37;;;;;;;7.67;5.43;;;2.30;99.90;;;;;;5052682;28;20767;-51
2022/04/02 06:59:06;;;;;;;6.43;5.77;;;2.30;99.90;;;;;;5051667;28;20228;-50
2022/04/02 07:01:34;;;;;;;6.00;5.27;;;2.50;99.90;;;;;;5052145;28;20584;-51
2022/04/02 07:04:03;;;;;;;47.23;20.27;;;2.70;99.90;;;;;;5051582;28;20259;-50
2022/04/02 07:06:34;;;;;;;6.60;5.03;;;2.70;99.90;;;;;;5052035;28;20228;-50
2022/04/02 07:09:02;;;;;;;6.93;5.93;;;2.70;99.90;;;;;;5052255;28;20222;-50
2022/04/02 07:11:30;;;;;;;7.77;6.00;;;2.80;99.90;;;;;;5052336;28;20205;-51
2022/04/02 07:13:59;;;;;;;7.67;6.33;;;2.80;99.90;;;;;;5051724;28;20210;-50
2022/04/02 07:16:28;;;;;;;6.67;5.93;;;2.80;99.90;;;;;;5052233;28;20207;-50
2022/04/02 07:18:58;;;;;;;8.13;6.00;;;3.00;99.90;;;;;;5051975;28;20212;-50
2022/04/02 07:21:28;;;;;;;6.20;5.60;;;3.00;99.90;;;;;;5051737;28;20263;-50
2022/04/02 07:23:57;;;;;;;6.63;5.90;;;3.20;99.90;;;;;;5051463;28;20259;-51
2022/04/02 07:26:27;;;;;;;6.47;5.73;;;3.40;99.90;;;;;;5051738;28;20765;-50
2022/04/02 07:28:55;;;;;;;10.87;6.47;;;3.40;99.90;;;;;;5051959;28;20259;-50
2022/04/02 07:31:23;;;;;;;8.17;6.40;;;3.50;99.90;;;;;;5051866;28;20271;-50
2022/04/02 07:33:51;;;;;;;6.10;5.40;;;3.50;99.90;;;;;;5051129;28;20219;-50
2022/04/02 07:36:34;;;;;;;7.40;5.50;;;3.50;99.90;;;;;;5051728;28;20206;-50
2022/04/02 07:39:11;;;;;;;9.73;6.20;;;3.60;99.90;;;;;;5051178;28;20639;-50
2022/04/02 07:41:44;;;;;;;7.27;6.30;;;3.80;99.90;;;;;;5052070;28;20206;-51
2022/04/02 07:44:22;;;;;;;9.27;6.07;;;4.00;99.90;;;;;;5051262;28;20238;-50
2022/04/02 07:46:52;;;;;;;9.63;6.10;;;4.20;99.90;;;;;;5050094;28;20266;-50
2022/04/02 07:49:22;;;;;;;15.73;6.00;;;4.50;99.90;;;;;;5051031;28;20290;-51
2022/04/02 07:51:53;;;;;;;5.90;5.30;;;4.30;99.90;;;;;;5051113;28;20656;-51
2022/04/02 07:54:25;;;;;;;7.93;5.40;;;4.40;99.90;;;;;;5051394;28;20252;-50
2022/04/02 07:56:58;;;;;;;8.90;5.80;;;4.60;99.90;;;;;;5051128;28;20248;-50
2022/04/02 07:59:32;;;;;;;6.00;4.60;;;5.10;99.90;;;;;;5051637;28;20292;-50
2022/04/02 08:02:01;;;;;;;7.07;5.20;;;5.40;99.90;;;;;;5050582;28;20264;-51
2022/04/02 08:04:30;;;;;;;5.97;5.30;;;5.30;99.90;;;;;;5051590;28;20264;-50
2022/04/02 08:06:59;;;;;;;6.43;5.23;;;5.20;99.90;;;;;;5050670;28;20725;-51
2022/04/02 08:09:29;;;;;;;6.03;5.43;;;5.50;99.90;;;;;;5051387;28;20234;-50
2022/04/02 08:11:59;;;;;;;7.57;5.27;;;5.20;99.90;;;;;;5050766;28;20242;-51
2022/04/02 08:14:31;;;;;;;7.17;5.60;;;5.10;99.90;;;;;;5051057;28;20215;-51
2022/04/02 08:16:59;;;;;;;7.67;5.27;;;5.10;99.90;;;;;;5051269;28;20246;-50
2022/04/02 08:19:28;;;;;;;6.40;5.43;;;5.10;99.90;;;;;;5051260;28;20291;-50
2022/04/02 08:21:56;;;;;;;5.43;4.43;;;5.00;99.90;;;;;;5050441;28;20249;-51
2022/04/02 08:24:24;;;;;;;6.83;4.50;;;4.80;99.90;;;;;;5050728;28;20203;-50
2022/04/02 08:27:01;;;;;;;7.17;4.40;;;5.00;99.90;;;;;;5050720;28;20233;-51
2022/04/02 08:29:37;;;;;;;6.07;5.10;;;5.10;99.90;;;;;;5050024;28;20236;-51
2022/04/02 08:32:17;;;;;;;8.00;5.53;;;5.00;99.90;;;;;;5049722;28;20222;-50
2022/04/02 08:35:04;;;;;;;9.00;4.87;;;4.80;99.90;;;;;;5049593;28;20199;-51
2022/04/02 08:37:50;;;;;;;6.17;4.70;;;4.80;99.90;;;;;;5029171;28;20258;-50
2022/04/02 08:40:47;;;;;;;6.20;4.50;;;4.90;99.90;;;;;;5029716;28;20229;-50
2022/04/02 08:43:51;;;;;;;5.93;4.60;;;5.30;99.90;;;;;;5030745;28;20190;-50
2022/04/02 08:46:34;;;;;;;6.87;4.50;;;5.40;99.90;;;;;;5030103;28;20282;-50
2022/04/02 08:49:23;;;;;;;5.77;4.60;;;5.40;99.90;;;;;;5030983;28;20226;-51
2022/04/02 08:52:19;;;;;;;5.00;3.83;;;5.90;99.90;;;;;;5033002;28;20304;-50
2022/04/02 08:54:58;;;;;;;7.40;4.83;;;6.30;99.90;;;;;;5033440;28;20210;-51
2022/04/02 08:57:32;;;;;;;6.03;4.37;;;6.20;99.90;;;;;;5034558;28;20201;-51
2022/04/02 09:00:07;;;;;;;5.07;4.00;;;6.40;99.90;;;;;;5045065;28;20224;-51
2022/04/02 09:03:08;;;;;;;5.80;4.20;;;6.40;99.90;;;;;;5054313;28;20201;-51
2022/04/02 09:05:55;;;;;;;4.87;4.20;;;6.40;99.90;;;;;;5053684;28;20275;-51
2022/04/02 09:08:56;;;;;;;5.77;3.97;;;6.70;99.90;;;;;;5054099;28;20201;-51
2022/04/02 09:11:25;;;;;;;6.70;4.00;;;6.70;99.90;;;;;;5054615;28;20207;-50
2022/04/02 09:14:17;;;;;;;5.73;4.20;;;6.70;99.90;;;;;;5053856;28;20207;-51
2022/04/02 09:17:00;;;;;;;5.63;4.33;;;6.40;99.90;;;;;;5054624;28;20202;-51
2022/04/02 09:19:35;;;;;;;7.03;4.63;;;6.60;99.90;;;;;;5054905;28;20232;-51
2022/04/02 09:22:07;;;;;;;6.63;4.43;;;6.70;99.90;;;;;;5053837;28;20358;-51
2022/04/02 09:25:24;;;;;;;5.53;3.77;;;6.80;99.90;;;;;;5054407;28;20202;-51
2022/04/02 09:28:11;;;;;;;4.70;3.53;;;7.10;99.90;;;;;;5054324;28;20201;-51
2022/04/02 09:31:07;;;;;;;6.60;3.93;;;6.80;99.90;;;;;;5043444;28;20235;-51
2022/04/02 09:34:13;;;;;;;6.03;4.13;;;6.90;99.90;;;;;;5020203;28;20210;-51
2022/04/02 09:36:53;;;;;;;6.60;4.13;;;6.60;99.90;;;;;;5053595;28;20206;-51
2022/04/02 09:39:29;;;;;;;4.03;3.60;;;6.20;99.90;;;;;;5054009;28;20236;-51
2022/04/02 09:42:21;;;;;;;5.43;3.80;;;6.30;99.90;;;;;;5053742;28;20258;-51
2022/04/02 09:44:58;;;;;;;7.60;4.47;;;6.50;99.90;;;;;;5053296;28;20340;-51
2022/04/02 09:47:52;;;;;;;5.47;4.27;;;6.70;99.90;;;;;;5054018;28;20316;-51
2022/04/02 09:50:23;;;;;;;6.27;4.37;;;6.60;99.90;;;;;;5036806;28;20230;-51
2022/04/02 09:52:56;;;;;;;4.83;3.93;;;6.30;99.90;;;;;;5043535;28;20755;-51
2022/04/02 09:55:27;;;;;;;5.83;3.80;;;6.40;99.90;;;;;;5053400;28;20235;-50
2022/04/02 09:58:34;;;;;;;4.60;4.10;;;6.30;99.90;;;;;;5053467;28;20206;-50
2022/04/02 10:01:05;;;;;;;6.70;4.50;;;6.40;99.90;;;;;;5053467;28;20271;-50
2022/04/02 10:03:39;;;;;;;7.17;4.30;;;6.20;99.90;;;;;;5052341;28;20227;-50
2022/04/02 10:06:35;;;;;;;4.80;3.50;;;5.90;99.90;;;;;;5053591;28;20244;-50
2022/04/02 10:09:11;;;;;;;7.67;4.20;;;6.00;99.90;;;;;;5039947;28;20705;-50
2022/04/02 10:11:43;;;;;;;4.97;4.23;;;6.10;99.90;;;;;;5053629;28;20289;-50
2022/04/02 10:14:11;;;;;;;7.00;4.63;;;6.00;99.90;;;;;;5052724;28;20206;-50
2022/04/02 10:16:41;;;;;;;5.53;4.00;;;6.10;99.90;;;;;;5050554;28;20202;-50
2022/04/02 10:19:11;;;;;;;4.47;4.07;;;6.10;99.90;;;;;;5052646;28;20231;-50
2022/04/02 10:21:41;;;;;;;6.17;4.30;;;5.80;99.90;;;;;;5052729;28;20207;-50
2022/04/02 10:24:21;;;;;;;6.63;4.30;;;6.10;99.90;;;;;;5052773;28;20199;-50
2022/04/02 10:26:52;;;;;;;6.43;4.33;;;6.00;99.90;;;;;;5051852;28;20220;-50
2022/04/02 10:29:48;;;;;;;6.60;4.83;;;5.90;99.90;;;;;;5052455;28;20283;-51
2022/04/02 10:32:30;;;;;;;6.63;4.70;;;5.90;99.90;;;;;;5052186;28;20213;-50
2022/04/02 10:35:04;;;;;;;7.27;4.50;;;5.80;99.90;;;;;;5052435;28;20772;-50
2022/04/02 10:37:40;;;;;;;5.50;5.00;;;6.10;99.90;;;;;;5052276;28;20204;-50
2022/04/02 10:40:10;;;;;;;5.90;4.67;;;6.40;99.90;;;;;;5046550;28;20229;-50
2022/04/02 10:42:40;;;;;;;6.50;4.70;;;6.50;99.90;;;;;;5050567;28;20202;-50
2022/04/02 10:45:11;;;;;;;6.17;4.80;;;6.80;99.90;;;;;;5052008;28;20710;-50
2022/04/02 10:47:46;;;;;;;7.40;4.90;;;7.10;99.90;;;;;;5051833;28;20597;-51
2022/04/02 10:50:18;;;;;;;7.53;4.80;;;7.10;99.90;;;;;;5050775;28;20237;-51
2022/04/02 10:52:52;;;;;;;6.27;4.43;;;7.00;99.90;;;;;;5050964;28;20204;-50
2022/04/02 10:55:23;;;;;;;5.50;4.70;;;6.80;99.90;;;;;;5038544;28;20194;-50
2022/04/02 10:57:53;;;;;;;6.10;4.87;;;6.50;99.50;;;;;;5051849;28;20612;-50
2022/04/02 11:00:21;;;;;;;5.03;4.53;;;6.80;99.50;;;;;;5052146;28;20280;-51
2022/04/02 11:03:01;;;;;;;7.53;6.10;;;6.70;99.90;;;;;;5051033;28;20201;-50
2022/04/02 11:05:35;;;;;;;7.93;5.10;;;6.80;99.50;;;;;;5051803;28;20216;-50
2022/04/02 11:08:07;;;;;;;5.67;5.13;;;7.00;99.70;;;;;;5051625;28;20236;-50
2022/04/02 11:10:36;;;;;;;7.83;5.03;;;7.00;99.00;;;;;;5050955;28;20282;-49
2022/04/02 11:13:06;;;;;;;6.20;4.67;;;6.80;97.80;;;;;;5050504;28;20909;-49
2022/04/02 11:15:40;;;;;;;5.93;4.33;;;6.90;98.40;;;;;;5050777;28;20254;-50
2022/04/02 11:18:18;;;;;;;5.87;4.70;;;7.00;98.50;;;;;;5051723;28;20820;-50
2022/04/02 11:20:48;;;;;;;6.10;5.10;;;6.90;97.90;;;;;;5051839;28;20229;-50
2022/04/02 11:23:22;;;;;;;7.40;5.60;;;6.80;98.70;;;;;;5050944;28;20215;-50
2022/04/02 11:25:55;;;;;;;5.67;4.93;;;6.60;99.20;;;;;;5051106;28;20855;-50
2022/04/02 11:28:25;;;;;;;5.43;4.87;;;6.60;99.20;;;;;;5051104;28;20602;-50
2022/04/02 11:31:03;;;;;;;9.40;4.63;;;6.70;99.20;;;;;;5051807;28;20240;-50
2022/04/02 11:33:33;;;;;;;8.13;5.50;;;6.80;99.30;;;;;;5050203;28;20255;-50
2022/04/02 11:36:06;;;;;;;4.60;4.20;;;6.80;98.80;;;;;;5050808;28;20266;-49
2022/04/02 11:38:40;;;;;;;6.33;5.10;;;6.80;98.70;;;;;;5050984;28;20251;-51
2022/04/02 11:41:21;;;;;;;6.53;4.60;;;6.80;98.10;;;;;;5051090;28;20248;-50
2022/04/02 11:43:51;;;;;;;7.10;4.83;;;7.00;98.80;;;;;;5051158;28;20213;-50
2022/04/02 11:46:21;;;;;;;5.03;4.50;;;7.00;98.80;;;;;;5051047;28;20193;-50
2022/04/02 11:48:52;;;;;;;6.73;5.00;;;7.10;98.30;;;;;;5051543;28;20287;-50
2022/04/02 11:51:22;;;;;;;7.93;5.13;;;7.10;98.60;;;;;;5034829;28;20259;-50
2022/04/02 11:53:52;;;;;;;6.27;5.20;;;7.00;98.60;;;;;;5030786;28;20256;-50
2022/04/02 11:56:26;;;;;;;6.53;5.00;;;7.10;99.70;;;;;;5030445;28;20201;-50
2022/04/02 11:58:57;;;;;;;14.37;8.83;;;7.00;99.30;;;;;;5034645;28;20295;-50
2022/04/02 12:01:25;;;;;;;10.30;6.83;;;7.10;99.30;;;;;;5050660;28;20202;-50
2022/04/02 12:04:12;;;;;;;5.73;5.13;;;7.00;99.20;;;;;;5050519;28;20674;-50
2022/04/02 12:06:41;;;;;;;6.97;5.37;;;6.90;99.60;;;;;;5050761;28;20621;-50
2022/04/02 12:09:14;;;;;;;7.40;5.27;;;7.10;99.50;;;;;;5050415;28;20646;-50
2022/04/02 12:11:51;;;;;;;6.77;5.90;;;7.10;99.90;;;;;;5050775;28;20201;-51
2022/04/02 12:14:34;;;;;;;7.03;5.37;;;7.20;99.90;;;;;;5050845;28;20271;-50
2022/04/02 12:17:09;;;;;;;10.03;6.00;;;7.30;99.90;;;;;;5050583;28;20205;-50
2022/04/02 12:19:44;;;;;;;9.00;5.50;;;7.30;99.90;;;;;;5050627;28;20239;-51
2022/04/02 12:22:21;;;;;;;6.43;5.00;;;6.80;99.40;;;;;;5050210;28;20204;-50
2022/04/02 12:24:53;;;;;;;6.20;5.47;;;6.90;99.90;;;;;;5036923;28;20260;-50
2022/04/02 12:27:22;;;;;;;10.20;6.17;;;6.90;99.90;;;;;;5030337;28;20233;-50
2022/04/02 12:29:52;;;;;;;7.87;5.07;;;6.80;99.90;;;;;;5037929;28;20222;-51
2022/04/02 12:32:29;;;;;;;5.93;4.87;;;6.90;99.90;;;;;;5049405;28;20270;-50
2022/04/02 12:34:59;;;;;;;5.47;4.73;;;6.90;99.90;;;;;;5041736;28;20637;-50
2022/04/02 12:37:30;;;;;;;6.50;4.80;;;6.90;99.90;;;;;;5050347;28;20205;-50
2022/04/02 12:40:15;;;;;;;6.23;4.87;;;7.00;99.90;;;;;;5050218;28;20279;-50
2022/04/02 12:42:45;;;;;;;5.50;5.00;;;6.70;99.90;;;;;;5050167;28;20306;-50
2022/04/02 12:45:17;;;;;;;6.47;5.40;;;6.70;99.90;;;;;;5050475;28;20255;-50
2022/04/02 12:47:58;;;;;;;9.50;6.17;;;6.70;99.90;;;;;;5049955;28;20771;-50
2022/04/02 12:50:28;;;;;;;8.27;5.60;;;6.60;99.90;;;;;;5049086;28;20233;-51
2022/04/02 12:52:56;;;;;;;7.73;5.40;;;6.60;99.90;;;;;;5049521;28;20221;-50
2022/04/02 12:55:27;;;;;;;7.00;4.60;;;6.30;99.90;;;;;;5049936;28;20212;-50
2022/04/02 12:58:01;;;;;;;5.43;4.33;;;6.30;99.90;;;;;;5050517;28;20710;-49
2022/04/02 13:00:31;;;;;;;6.30;4.27;;;6.30;99.90;;;;;;5050667;28;20578;-50
2022/04/02 13:03:00;;;;;;;4.57;3.83;;;6.20;99.90;;;;;;5049896;28;20225;-50
2022/04/02 13:05:48;;;;;;;5.17;4.60;;;5.90;99.90;;;;;;5050415;28;20219;-51
2022/04/02 13:08:26;;;;;;;7.57;3.60;;;6.10;99.90;;;;;;5050189;28;20623;-50
2022/04/02 13:10:57;;;;;;;4.97;3.90;;;6.20;99.90;;;;;;5050302;28;20631;-50
2022/04/02 13:13:38;;;;;;;4.27;3.47;;;6.20;99.90;;;;;;5050822;28;20216;-51
2022/04/02 13:16:07;;;;;;;5.77;3.30;;;6.20;99.90;;;;;;5070620;28;20684;-50
2022/04/02 13:21:33;;;;;;;6.10;3.23;;;6.20;99.90;;;;;;5048156;28;20206;-50
2022/04/02 13:24:26;;;;;;;7.27;3.50;;;6.10;99.60;;;;;;5042485;28;20821;-51
2022/04/02 13:27:24;;;;;;;5.87;3.40;;;5.80;99.70;;;;;;5049768;28;20741;-50